sensor_id;sensor_type;location;lat;lon;timestamp;temperature;humidity
71367;DHT22;60030;52.274;8.040;2023-04-25T00:02:29;8.50;99.90
71367;DHT22;60030;52.274;8.040;2023-04-25T00:04:57;8.50;99.90
71367;DHT22;60030;52.274;8.040;2023-04-25T00:07:25;8.70;99.90
71367;DHT22;60030;52.274;8.040;2023-04-25T00:09:52;9.00;99.90
71367;DHT22;60030;52.274;8.040;2023-04-25T00:12:19;9.30;99.90
71367;DHT22;60030;52.274;8.040;2023-04-25T00:14:48;9.40;99.90
71367;DHT22;60030;52.274;8.040;2023-04-25T00:17:17;9.30;99.90
71367;DHT22;60030;52.274;8.040;2023-04-25T00:19:44;9.30;99.90
71367;DHT22;60030;52.274;8.040;2023-04-25T00:22:12;9.30;99.90
71367;DHT22;60030;52.274;8.040;2023-04-25T00:24:39;9.30;99.90
71367;DHT22;60030;52.274;8.040;2023-04-25T00:27:06;9.30;99.90
71367;DHT22;60030;52.274;8.040;2023-04-25T00:29:33;9.10;99.90
71367;DHT22;60030;52.274;8.040;2023-04-25T00:32:02;8.80;99.90
71367;DHT22;60030;52.274;8.040;2023-04-25T00:34:29;8.60;99.90
71367;DHT22;60030;52.274;8.040;2023-04-25T00:36:56;8.70;99.90
71367;DHT22;60030;52.274;8.040;2023-04-25T00:39:23;8.70;99.90
71367;DHT22;60030;52.274;8.040;2023-04-25T00:41:50;8.80;99.90
71367;DHT22;60030;52.274;8.040;2023-04-25T00:44:20;8.80;99.90
71367;DHT22;60030;52.274;8.040;2023-04-25T00:46:48;8.80;99.90
71367;DHT22;60030;52.274;8.040;2023-04-25T00:49:17;8.70;99.90
71367;DHT22;60030;52.274;8.040;2023-04-25T00:51:44;8.50;99.90
71367;DHT22;60030;52.274;8.040;2023-04-25T00:54:12;8.50;99.90
71367;DHT22;60030;52.274;8.040;2023-04-25T00:56:40;8.60;99.90
71367;DHT22;60030;52.274;8.040;2023-04-25T00:59:09;8.50;99.90
71367;DHT22;60030;52.274;8.040;2023-04-25T01:01:36;8.50;99.90
71367;DHT22;60030;52.274;8.040;2023-04-25T01:04:05;8.40;99.90
71367;DHT22;60030;52.274;8.040;2023-04-25T01:06:34;8.60;99.90
71367;DHT22;60030;52.274;8.040;2023-04-25T01:09:02;8.50;99.90
71367;DHT22;60030;52.274;8.040;2023-04-25T01:11:30;8.50;99.90
71367;DHT22;60030;52.274;8.040;2023-04-25T01:13:57;8.50;99.90
71367;DHT22;60030;52.274;8.040;2023-04-25T01:16:24;8.60;99.90
71367;DHT22;60030;52.274;8.040;2023-04-25T01:18:52;8.70;99.90
71367;DHT22;60030;52.274;8.040;2023-04-25T01:21:21;8.70;99.90
71367;DHT22;60030;52.274;8.040;2023-04-25T01:23:48;8.80;99.90
71367;DHT22;60030;52.274;8.040;2023-04-25T01:26:15;8.60;99.90
71367;DHT22;60030;52.274;8.040;2023-04-25T01:28:43;8.50;99.90
71367;DHT22;60030;52.274;8.040;2023-04-25T01:31:12;8.60;99.90
71367;DHT22;60030;52.274;8.040;2023-04-25T01:33:39;8.50;99.90
71367;DHT22;60030;52.274;8.040;2023-04-25T01:36:07;8.50;99.90
71367;DHT22;60030;52.274;8.040;2023-04-25T01:38:36;8.40;99.90
71367;DHT22;60030;52.274;8.040;2023-04-25T01:41:03;8.30;99.90
71367;DHT22;60030;52.274;8.040;2023-04-25T01:43:30;8.60;99.90
71367;DHT22;60030;52.274;8.040;2023-04-25T01:45:57;8.50;99.90
71367;DHT22;60030;52.274;8.040;2023-04-25T01:48:25;8.40;99.90
71367;DHT22;60030;52.274;8.040;2023-04-25T01:50:52;8.40;99.90
71367;DHT22;60030;52.274;8.040;2023-04-25T01:53:19;8.30;99.90
71367;DHT22;60030;52.274;8.040;2023-04-25T01:55:48;8.40;99.90
71367;DHT22;60030;52.274;8.040;2023-04-25T01:58:18;8.60;99.90
71367;DHT22;60030;52.274;8.040;2023-04-25T02:01:03;8.40;99.90
71367;DHT22;60030;52.274;8.040;2023-04-25T02:03:37;8.40;99.90
71367;DHT22;60030;52.274;8.040;2023-04-25T02:06:08;8.30;99.90
71367;DHT22;60030;52.274;8.040;2023-04-25T02:08:40;8.10;99.90
71367;DHT22;60030;52.274;8.040;2023-04-25T02:11:08;8.20;99.90
71367;DHT22;60030;52.274;8.040;2023-04-25T02:13:41;8.10;99.90
71367;DHT22;60030;52.274;8.040;2023-04-25T02:16:34;8.30;99.90
71367;DHT22;60030;52.274;8.040;2023-04-25T02:19:01;8.40;99.90
71367;DHT22;60030;52.274;8.040;2023-04-25T02:21:30;8.40;99.90
71367;DHT22;60030;52.274;8.040;2023-04-25T02:23:58;8.60;99.90
71367;DHT22;60030;52.274;8.040;2023-04-25T02:26:29;8.50;99.90
71367;DHT22;60030;52.274;8.040;2023-04-25T02:28:56;8.20;99.90
71367;DHT22;60030;52.274;8.040;2023-04-25T02:31:24;8.20;99.90
71367;DHT22;60030;52.274;8.040;2023-04-25T02:33:51;8.20;99.90
71367;DHT22;60030;52.274;8.040;2023-04-25T02:36:18;8.20;99.90
71367;DHT22;60030;52.274;8.040;2023-04-25T02:38:47;8.20;99.90
71367;DHT22;60030;52.274;8.040;2023-04-25T02:41:14;8.20;99.90
71367;DHT22;60030;52.274;8.040;2023-04-25T02:43:43;8.40;99.90
71367;DHT22;60030;52.274;8.040;2023-04-25T02:46:10;8.30;99.90
71367;DHT22;60030;52.274;8.040;2023-04-25T02:48:37;8.10;99.90
71367;DHT22;60030;52.274;8.040;2023-04-25T02:51:04;8.20;99.90
71367;DHT22;60030;52.274;8.040;2023-04-25T02:53:31;8.20;99.90
71367;DHT22;60030;52.274;8.040;2023-04-25T02:55:58;8.20;99.90
71367;DHT22;60030;52.274;8.040;2023-04-25T02:58:25;8.20;99.90
71367;DHT22;60030;52.274;8.040;2023-04-25T03:00:54;8.20;99.90
71367;DHT22;60030;52.274;8.040;2023-04-25T03:03:21;8.20;99.90
71367;DHT22;60030;52.274;8.040;2023-04-25T03:05:49;8.00;99.90
71367;DHT22;60030;52.274;8.040;2023-04-25T03:08:21;8.00;99.90
71367;DHT22;60030;52.274;8.040;2023-04-25T03:10:48;8.00;99.90
71367;DHT22;60030;52.274;8.040;2023-04-25T03:13:18;8.10;99.90
71367;DHT22;60030;52.274;8.040;2023-04-25T03:15:45;8.20;99.90
71367;DHT22;60030;52.274;8.040;2023-04-25T03:18:14;8.20;99.90
71367;DHT22;60030;52.274;8.040;2023-04-25T03:20:41;8.10;99.90
71367;DHT22;60030;52.274;8.040;2023-04-25T03:23:08;8.10;99.90
71367;DHT22;60030;52.274;8.040;2023-04-25T03:25:41;8.00;99.90
71367;DHT22;60030;52.274;8.040;2023-04-25T03:28:09;8.00;99.90
71367;DHT22;60030;52.274;8.040;2023-04-25T03:30:36;8.20;99.90
71367;DHT22;60030;52.274;8.040;2023-04-25T03:33:03;8.00;99.90
71367;DHT22;60030;52.274;8.040;2023-04-25T03:35:32;8.10;99.90
71367;DHT22;60030;52.274;8.040;2023-04-25T03:37:59;8.20;99.90
71367;DHT22;60030;52.274;8.040;2023-04-25T03:40:31;8.20;99.90
71367;DHT22;60030;52.274;8.040;2023-04-25T03:43:13;8.10;99.90
71367;DHT22;60030;52.274;8.040;2023-04-25T03:45:46;8.10;99.90
71367;DHT22;60030;52.274;8.040;2023-04-25T03:48:14;8.00;99.90
71367;DHT22;60030;52.274;8.040;2023-04-25T03:50:43;8.00;99.90
71367;DHT22;60030;52.274;8.040;2023-04-25T03:53:11;8.00;99.90
71367;DHT22;60030;52.274;8.040;2023-04-25T03:55:58;8.10;99.90
71367;DHT22;60030;52.274;8.040;2023-04-25T03:58:26;7.80;99.90
71367;DHT22;60030;52.274;8.040;2023-04-25T04:00:53;7.90;99.90
71367;DHT22;60030;52.274;8.040;2023-04-25T04:03:20;7.90;99.90
71367;DHT22;60030;52.274;8.040;2023-04-25T04:05:49;7.80;99.90
71367;DHT22;60030;52.274;8.040;2023-04-25T04:08:17;7.90;99.90
71367;DHT22;60030;52.274;8.040;2023-04-25T04:10:44;7.80;99.90
71367;DHT22;60030;52.274;8.040;2023-04-25T04:13:11;7.90;99.90
71367;DHT22;60030;52.274;8.040;2023-04-25T04:15:38;8.00;99.90
71367;DHT22;60030;52.274;8.040;2023-04-25T04:18:05;7.90;99.90
71367;DHT22;60030;52.274;8.040;2023-04-25T04:20:33;7.80;99.90
71367;DHT22;60030;52.274;8.040;2023-04-25T04:23:01;7.70;99.90
71367;DHT22;60030;52.274;8.040;2023-04-25T04:25:29;7.80;99.90
71367;DHT22;60030;52.274;8.040;2023-04-25T04:28:18;7.60;99.90
71367;DHT22;60030;52.274;8.040;2023-04-25T04:30:51;7.60;99.90
71367;DHT22;60030;52.274;8.040;2023-04-25T04:33:18;7.60;99.90
71367;DHT22;60030;52.274;8.040;2023-04-25T04:35:49;7.50;99.90
71367;DHT22;60030;52.274;8.040;2023-04-25T04:38:19;7.50;99.90
71367;DHT22;60030;52.274;8.040;2023-04-25T04:40:48;7.70;99.90
71367;DHT22;60030;52.274;8.040;2023-04-25T04:43:21;7.70;99.90
71367;DHT22;60030;52.274;8.040;2023-04-25T04:46:12;7.70;99.90
71367;DHT22;60030;52.274;8.040;2023-04-25T04:48:57;7.80;99.90
71367;DHT22;60030;52.274;8.040;2023-04-25T04:51:44;7.80;99.90
71367;DHT22;60030;52.274;8.040;2023-04-25T04:54:35;7.80;99.90
71367;DHT22;60030;52.274;8.040;2023-04-25T04:57:24;7.70;99.90
71367;DHT22;60030;52.274;8.040;2023-04-25T05:00:12;7.60;99.90
71367;DHT22;60030;52.274;8.040;2023-04-25T05:02:45;7.60;99.90
71367;DHT22;60030;52.274;8.040;2023-04-25T05:05:28;7.70;99.90
71367;DHT22;60030;52.274;8.040;2023-04-25T05:08:25;7.80;99.90
71367;DHT22;60030;52.274;8.040;2023-04-25T05:11:04;7.70;99.90
71367;DHT22;60030;52.274;8.040;2023-04-25T05:13:52;7.60;99.90
71367;DHT22;60030;52.274;8.040;2023-04-25T05:16:39;7.70;99.90
71367;DHT22;60030;52.274;8.040;2023-04-25T05:19:29;7.50;99.90
71367;DHT22;60030;52.274;8.040;2023-04-25T05:22:22;7.70;99.90
71367;DHT22;60030;52.274;8.040;2023-04-25T05:25:19;7.60;99.90
71367;DHT22;60030;52.274;8.040;2023-04-25T05:28:06;7.60;99.90
71367;DHT22;60030;52.274;8.040;2023-04-25T05:30:54;7.80;99.90
71367;DHT22;60030;52.274;8.040;2023-04-25T05:33:27;7.90;99.90
71367;DHT22;60030;52.274;8.040;2023-04-25T05:35:55;8.00;99.90
71367;DHT22;60030;52.274;8.040;2023-04-25T05:38:24;7.90;99.90
71367;DHT22;60030;52.274;8.040;2023-04-25T05:41:10;7.90;99.90
71367;DHT22;60030;52.274;8.040;2023-04-25T05:43:58;7.80;99.90
71367;DHT22;60030;52.274;8.040;2023-04-25T05:46:38;7.50;99.90
71367;DHT22;60030;52.274;8.040;2023-04-25T05:49:21;7.70;99.90
71367;DHT22;60030;52.274;8.040;2023-04-25T05:52:07;7.90;99.90
71367;DHT22;60030;52.274;8.040;2023-04-25T05:54:47;7.90;99.90
71367;DHT22;60030;52.274;8.040;2023-04-25T05:57:22;8.00;99.90
71367;DHT22;60030;52.274;8.040;2023-04-25T05:59:51;7.90;99.90
71367;DHT22;60030;52.274;8.040;2023-04-25T06:02:19;8.10;99.90
71367;DHT22;60030;52.274;8.040;2023-04-25T06:04:49;8.00;99.90
71367;DHT22;60030;52.274;8.040;2023-04-25T06:07:16;8.10;99.90
71367;DHT22;60030;52.274;8.040;2023-04-25T06:09:43;8.20;99.90
71367;DHT22;60030;52.274;8.040;2023-04-25T06:12:11;8.20;99.90
71367;DHT22;60030;52.274;8.040;2023-04-25T06:14:38;8.10;99.90
71367;DHT22;60030;52.274;8.040;2023-04-25T06:17:07;8.10;99.90
71367;DHT22;60030;52.274;8.040;2023-04-25T06:19:35;8.20;99.90
71367;DHT22;60030;52.274;8.040;2023-04-25T06:22:02;8.20;99.90
71367;DHT22;60030;52.274;8.040;2023-04-25T06:24:31;8.20;99.90
71367;DHT22;60030;52.274;8.040;2023-04-25T06:26:58;8.40;99.90
71367;DHT22;60030;52.274;8.040;2023-04-25T06:29:26;8.40;99.90
71367;DHT22;60030;52.274;8.040;2023-04-25T06:31:53;8.40;99.90
71367;DHT22;60030;52.274;8.040;2023-04-25T06:34:22;8.50;99.90
71367;DHT22;60030;52.274;8.040;2023-04-25T06:36:50;8.30;99.90
71367;DHT22;60030;52.274;8.040;2023-04-25T06:39:17;8.60;99.90
71367;DHT22;60030;52.274;8.040;2023-04-25T06:41:45;8.40;99.90
71367;DHT22;60030;52.274;8.040;2023-04-25T06:44:35;8.60;99.90
71367;DHT22;60030;52.274;8.040;2023-04-25T06:47:04;8.50;99.90
71367;DHT22;60030;52.274;8.040;2023-04-25T06:49:32;8.70;99.90
71367;DHT22;60030;52.274;8.040;2023-04-25T06:52:00;8.50;99.90
71367;DHT22;60030;52.274;8.040;2023-04-25T06:54:27;8.60;99.90
71367;DHT22;60030;52.274;8.040;2023-04-25T06:57:03;8.70;99.90
71367;DHT22;60030;52.274;8.040;2023-04-25T06:59:32;8.70;99.90
71367;DHT22;60030;52.274;8.040;2023-04-25T07:01:59;8.70;99.90
71367;DHT22;60030;52.274;8.040;2023-04-25T07:04:27;8.40;99.90
71367;DHT22;60030;52.274;8.040;2023-04-25T07:06:57;8.50;99.90
71367;DHT22;60030;52.274;8.040;2023-04-25T07:09:33;8.30;99.90
71367;DHT22;60030;52.274;8.040;2023-04-25T07:12:00;8.70;99.90
71367;DHT22;60030;52.274;8.040;2023-04-25T07:14:29;8.90;99.90
71367;DHT22;60030;52.274;8.040;2023-04-25T07:16:57;9.10;99.90
71367;DHT22;60030;52.274;8.040;2023-04-25T07:19:26;9.30;99.90
71367;DHT22;60030;52.274;8.040;2023-04-25T07:21:58;9.50;99.90
71367;DHT22;60030;52.274;8.040;2023-04-25T07:24:26;9.40;99.90
71367;DHT22;60030;52.274;8.040;2023-04-25T07:26:55;9.50;99.90
71367;DHT22;60030;52.274;8.040;2023-04-25T07:29:41;9.40;99.90
71367;DHT22;60030;52.274;8.040;2023-04-25T07:32:08;9.70;99.90
71367;DHT22;60030;52.274;8.040;2023-04-25T07:34:36;9.50;99.90
71367;DHT22;60030;52.274;8.040;2023-04-25T07:37:06;9.40;99.90
71367;DHT22;60030;52.274;8.040;2023-04-25T07:39:41;9.50;99.90
71367;DHT22;60030;52.274;8.040;2023-04-25T07:42:09;9.50;99.90
71367;DHT22;60030;52.274;8.040;2023-04-25T07:44:39;9.60;99.90
71367;DHT22;60030;52.274;8.040;2023-04-25T07:47:10;9.70;99.90
71367;DHT22;60030;52.274;8.040;2023-04-25T07:49:37;9.60;99.90
71367;DHT22;60030;52.274;8.040;2023-04-25T07:52:06;9.60;99.90
71367;DHT22;60030;52.274;8.040;2023-04-25T07:54:36;9.50;99.90
71367;DHT22;60030;52.274;8.040;2023-04-25T07:57:11;9.30;99.90
71367;DHT22;60030;52.274;8.040;2023-04-25T07:59:39;9.30;99.90
71367;DHT22;60030;52.274;8.040;2023-04-25T08:02:07;9.40;99.90
71367;DHT22;60030;52.274;8.040;2023-04-25T08:04:34;9.40;99.90
71367;DHT22;60030;52.274;8.040;2023-04-25T08:07:05;9.40;99.90
71367;DHT22;60030;52.274;8.040;2023-04-25T08:09:40;9.60;99.90
71367;DHT22;60030;52.274;8.040;2023-04-25T08:12:13;9.70;99.90
71367;DHT22;60030;52.274;8.040;2023-04-25T08:14:40;9.70;99.90
71367;DHT22;60030;52.274;8.040;2023-04-25T08:17:10;9.50;99.90
71367;DHT22;60030;52.274;8.040;2023-04-25T08:19:40;9.50;99.90
71367;DHT22;60030;52.274;8.040;2023-04-25T08:22:16;9.60;99.90
71367;DHT22;60030;52.274;8.040;2023-04-25T08:24:51;9.70;99.90
71367;DHT22;60030;52.274;8.040;2023-04-25T08:27:18;10.00;99.90
71367;DHT22;60030;52.274;8.040;2023-04-25T08:29:46;10.30;99.90
71367;DHT22;60030;52.274;8.040;2023-04-25T08:32:14;10.10;99.90
71367;DHT22;60030;52.274;8.040;2023-04-25T08:34:52;10.30;99.90
71367;DHT22;60030;52.274;8.040;2023-04-25T08:37:21;10.50;99.90
71367;DHT22;60030;52.274;8.040;2023-04-25T08:39:55;10.40;99.90
71367;DHT22;60030;52.274;8.040;2023-04-25T08:42:34;10.20;99.90
71367;DHT22;60030;52.274;8.040;2023-04-25T08:45:04;10.50;99.90
71367;DHT22;60030;52.274;8.040;2023-04-25T08:47:38;10.50;99.90
71367;DHT22;60030;52.274;8.040;2023-04-25T08:50:06;10.20;99.90
71367;DHT22;60030;52.274;8.040;2023-04-25T08:52:39;10.10;99.90
71367;DHT22;60030;52.274;8.040;2023-04-25T08:55:09;10.30;99.90
71367;DHT22;60030;52.274;8.040;2023-04-25T08:57:37;10.60;99.90
71367;DHT22;60030;52.274;8.040;2023-04-25T09:00:06;10.30;99.90
71367;DHT22;60030;52.274;8.040;2023-04-25T09:02:36;10.00;99.90
71367;DHT22;60030;52.274;8.040;2023-04-25T09:05:03;9.90;99.90
71367;DHT22;60030;52.274;8.040;2023-04-25T09:07:31;9.80;99.90
71367;DHT22;60030;52.274;8.040;2023-04-25T09:09:59;10.10;99.90
71367;DHT22;60030;52.274;8.040;2023-04-25T09:12:30;10.30;99.90
71367;DHT22;60030;52.274;8.040;2023-04-25T09:15:04;10.40;99.90
71367;DHT22;60030;52.274;8.040;2023-04-25T09:17:55;10.20;99.90
71367;DHT22;60030;52.274;8.040;2023-04-25T09:20:24;10.20;99.90
71367;DHT22;60030;52.274;8.040;2023-04-25T09:23:01;10.10;99.90
71367;DHT22;60030;52.274;8.040;2023-04-25T09:25:36;10.10;99.90
71367;DHT22;60030;52.274;8.040;2023-04-25T09:28:06;10.30;99.90
71367;DHT22;60030;52.274;8.040;2023-04-25T09:30:34;10.10;99.90
71367;DHT22;60030;52.274;8.040;2023-04-25T09:33:18;10.10;99.90
71367;DHT22;60030;52.274;8.040;2023-04-25T09:35:48;10.00;99.90
71367;DHT22;60030;52.274;8.040;2023-04-25T09:38:30;10.30;99.90
71367;DHT22;60030;52.274;8.040;2023-04-25T09:41:02;10.30;99.90
71367;DHT22;60030;52.274;8.040;2023-04-25T09:43:39;11.10;99.90
71367;DHT22;60030;52.274;8.040;2023-04-25T09:46:08;11.30;98.60
71367;DHT22;60030;52.274;8.040;2023-04-25T09:48:40;11.40;98.70
71367;DHT22;60030;52.274;8.040;2023-04-25T09:51:10;11.40;97.60
71367;DHT22;60030;52.274;8.040;2023-04-25T09:53:39;11.30;96.00
71367;DHT22;60030;52.274;8.040;2023-04-25T09:56:14;11.10;96.70
71367;DHT22;60030;52.274;8.040;2023-04-25T09:58:42;11.00;97.30
71367;DHT22;60030;52.274;8.040;2023-04-25T10:01:10;10.80;98.50
71367;DHT22;60030;52.274;8.040;2023-04-25T10:03:52;10.90;99.90
71367;DHT22;60030;52.274;8.040;2023-04-25T10:06:49;10.70;99.90
71367;DHT22;60030;52.274;8.040;2023-04-25T10:09:20;10.90;99.90
71367;DHT22;60030;52.274;8.040;2023-04-25T10:11:50;10.80;99.90
71367;DHT22;60030;52.274;8.040;2023-04-25T10:14:18;11.00;99.90
71367;DHT22;60030;52.274;8.040;2023-04-25T10:16:47;11.00;99.90
71367;DHT22;60030;52.274;8.040;2023-04-25T10:19:15;11.40;99.90
71367;DHT22;60030;52.274;8.040;2023-04-25T10:21:48;11.50;99.90
71367;DHT22;60030;52.274;8.040;2023-04-25T10:24:16;11.80;99.90
71367;DHT22;60030;52.274;8.040;2023-04-25T10:26:44;12.00;99.90
71367;DHT22;60030;52.274;8.040;2023-04-25T10:29:22;12.50;99.40
71367;DHT22;60030;52.274;8.040;2023-04-25T10:31:49;12.10;99.50
71367;DHT22;60030;52.274;8.040;2023-04-25T10:34:17;11.70;99.90
71367;DHT22;60030;52.274;8.040;2023-04-25T10:36:49;11.40;99.90
71367;DHT22;60030;52.274;8.040;2023-04-25T10:39:23;11.00;99.90
71367;DHT22;60030;52.274;8.040;2023-04-25T10:41:57;11.00;99.90
71367;DHT22;60030;52.274;8.040;2023-04-25T10:44:27;10.70;99.90
71367;DHT22;60030;52.274;8.040;2023-04-25T10:46:55;10.80;99.90
71367;DHT22;60030;52.274;8.040;2023-04-25T10:49:31;10.80;99.90
71367;DHT22;60030;52.274;8.040;2023-04-25T10:52:12;10.60;99.90
71367;DHT22;60030;52.274;8.040;2023-04-25T10:54:43;10.60;99.90
71367;DHT22;60030;52.274;8.040;2023-04-25T10:57:29;10.60;99.90
71367;DHT22;60030;52.274;8.040;2023-04-25T11:00:09;10.60;99.90
71367;DHT22;60030;52.274;8.040;2023-04-25T11:02:40;10.50;99.90
71367;DHT22;60030;52.274;8.040;2023-04-25T11:05:08;10.90;99.90
71367;DHT22;60030;52.274;8.040;2023-04-25T11:07:44;11.30;99.90
71367;DHT22;60030;52.274;8.040;2023-04-25T11:10:15;11.30;99.90
71367;DHT22;60030;52.274;8.040;2023-04-25T11:12:42;12.00;99.90
71367;DHT22;60030;52.274;8.040;2023-04-25T11:15:11;12.50;99.90
71367;DHT22;60030;52.274;8.040;2023-04-25T11:17:39;12.70;99.90
71367;DHT22;60030;52.274;8.040;2023-04-25T11:20:07;12.40;99.90
71367;DHT22;60030;52.274;8.040;2023-04-25T11:22:37;12.00;99.90
71367;DHT22;60030;52.274;8.040;2023-04-25T11:25:07;11.70;99.90
71367;DHT22;60030;52.274;8.040;2023-04-25T11:27:37;12.00;99.90
71367;DHT22;60030;52.274;8.040;2023-04-25T11:30:14;12.00;99.90
71367;DHT22;60030;52.274;8.040;2023-04-25T11:32:43;12.10;99.90
71367;DHT22;60030;52.274;8.040;2023-04-25T11:35:13;11.50;99.90
71367;DHT22;60030;52.274;8.040;2023-04-25T11:37:41;11.50;99.90
71367;DHT22;60030;52.274;8.040;2023-04-25T11:40:09;11.40;99.90
71367;DHT22;60030;52.274;8.040;2023-04-25T11:42:38;11.70;99.90
71367;DHT22;60030;52.274;8.040;2023-04-25T11:45:06;12.50;99.90
71367;DHT22;60030;52.274;8.040;2023-04-25T11:47:35;13.20;99.80
71367;DHT22;60030;52.274;8.040;2023-04-25T11:50:04;13.10;98.50
71367;DHT22;60030;52.274;8.040;2023-04-25T11:52:38;13.10;97.40
71367;DHT22;60030;52.274;8.040;2023-04-25T11:55:08;12.90;98.80
71367;DHT22;60030;52.274;8.040;2023-04-25T11:57:37;12.30;98.30
71367;DHT22;60030;52.274;8.040;2023-04-25T12:00:12;11.80;99.70
71367;DHT22;60030;52.274;8.040;2023-04-25T12:02:45;11.20;99.90
71367;DHT22;60030;52.274;8.040;2023-04-25T12:05:15;11.30;99.90
71367;DHT22;60030;52.274;8.040;2023-04-25T12:07:42;11.30;99.90
71367;DHT22;60030;52.274;8.040;2023-04-25T12:10:11;11.30;99.90
71367;DHT22;60030;52.274;8.040;2023-04-25T12:12:41;11.20;99.90
71367;DHT22;60030;52.274;8.040;2023-04-25T12:15:10;11.30;99.10
71367;DHT22;60030;52.274;8.040;2023-04-25T12:17:38;11.10;99.70
71367;DHT22;60030;52.274;8.040;2023-04-25T12:20:09;11.10;99.90
71367;DHT22;60030;52.274;8.040;2023-04-25T12:22:37;11.00;99.90
71367;DHT22;60030;52.274;8.040;2023-04-25T12:25:04;10.50;99.90
71367;DHT22;60030;52.274;8.040;2023-04-25T12:27:33;10.30;99.90
71367;DHT22;60030;52.274;8.040;2023-04-25T12:30:01;10.10;99.90
71367;DHT22;60030;52.274;8.040;2023-04-25T12:32:30;10.10;99.90
71367;DHT22;60030;52.274;8.040;2023-04-25T12:34:57;10.50;99.90
71367;DHT22;60030;52.274;8.040;2023-04-25T12:37:26;10.70;99.90
71367;DHT22;60030;52.274;8.040;2023-04-25T12:39:53;11.00;99.90
71367;DHT22;60030;52.274;8.040;2023-04-25T12:42:20;11.50;99.90
71367;DHT22;60030;52.274;8.040;2023-04-25T12:44:47;11.50;99.90
71367;DHT22;60030;52.274;8.040;2023-04-25T12:47:14;12.00;99.90
71367;DHT22;60030;52.274;8.040;2023-04-25T12:49:42;12.60;99.90
71367;DHT22;60030;52.274;8.040;2023-04-25T12:52:09;13.40;95.90
71367;DHT22;60030;52.274;8.040;2023-04-25T12:54:38;14.10;92.90
71367;DHT22;60030;52.274;8.040;2023-04-25T12:57:05;15.50;75.70
71367;DHT22;60030;52.274;8.040;2023-04-25T12:59:32;16.90;69.50
71367;DHT22;60030;52.274;8.040;2023-04-25T13:01:59;17.70;67.20
71367;DHT22;60030;52.274;8.040;2023-04-25T13:04:26;16.80;67.80
71367;DHT22;60030;52.274;8.040;2023-04-25T13:06:53;15.40;74.10
71367;DHT22;60030;52.274;8.040;2023-04-25T13:09:20;14.70;78.00
71367;DHT22;60030;52.274;8.040;2023-04-25T13:11:49;14.20;83.10
71367;DHT22;60030;52.274;8.040;2023-04-25T13:14:16;14.20;80.80
71367;DHT22;60030;52.274;8.040;2023-04-25T13:16:43;14.10;82.10
71367;DHT22;60030;52.274;8.040;2023-04-25T13:19:11;13.60;81.30
71367;DHT22;60030;52.274;8.040;2023-04-25T13:21:38;14.20;83.80
71367;DHT22;60030;52.274;8.040;2023-04-25T13:24:06;15.00;77.90
71367;DHT22;60030;52.274;8.040;2023-04-25T13:26:33;15.20;75.40
71367;DHT22;60030;52.274;8.040;2023-04-25T13:29:02;14.90;76.60
71367;DHT22;60030;52.274;8.040;2023-04-25T13:31:30;15.00;73.20
71367;DHT22;60030;52.274;8.040;2023-04-25T13:33:58;17.30;66.40
71367;DHT22;60030;52.274;8.040;2023-04-25T13:36:25;17.20;63.00
71367;DHT22;60030;52.274;8.040;2023-04-25T13:38:53;15.80;66.60
71367;DHT22;60030;52.274;8.040;2023-04-25T13:41:20;14.90;68.90
71367;DHT22;60030;52.274;8.040;2023-04-25T13:43:47;15.30;68.10
71367;DHT22;60030;52.274;8.040;2023-04-25T13:46:16;17.50;63.30
71367;DHT22;60030;52.274;8.040;2023-04-25T13:48:43;17.40;61.30
71367;DHT22;60030;52.274;8.040;2023-04-25T13:51:15;18.00;60.30
71367;DHT22;60030;52.274;8.040;2023-04-25T13:53:43;19.60;57.30
71367;DHT22;60030;52.274;8.040;2023-04-25T13:56:11;19.00;56.30
71367;DHT22;60030;52.274;8.040;2023-04-25T13:58:38;18.90;57.90
71367;DHT22;60030;52.274;8.040;2023-04-25T14:01:05;18.00;59.60
71367;DHT22;60030;52.274;8.040;2023-04-25T14:03:34;15.70;64.80
71367;DHT22;60030;52.274;8.040;2023-04-25T14:06:01;14.50;69.90
71367;DHT22;60030;52.274;8.040;2023-04-25T14:08:28;13.50;76.30
71367;DHT22;60030;52.274;8.040;2023-04-25T14:10:55;12.30;89.00
71367;DHT22;60030;52.274;8.040;2023-04-25T14:13:22;12.00;95.30
71367;DHT22;60030;52.274;8.040;2023-04-25T14:15:50;11.60;99.90
71367;DHT22;60030;52.274;8.040;2023-04-25T14:18:17;11.10;99.90
71367;DHT22;60030;52.274;8.040;2023-04-25T14:20:46;10.50;99.90
71367;DHT22;60030;52.274;8.040;2023-04-25T14:23:13;10.40;99.90
71367;DHT22;60030;52.274;8.040;2023-04-25T14:25:40;10.80;99.90
71367;DHT22;60030;52.274;8.040;2023-04-25T14:28:09;11.20;99.90
71367;DHT22;60030;52.274;8.040;2023-04-25T14:30:36;11.70;99.90
71367;DHT22;60030;52.274;8.040;2023-04-25T14:33:04;12.50;99.90
71367;DHT22;60030;52.274;8.040;2023-04-25T14:35:31;13.40;99.90
71367;DHT22;60030;52.274;8.040;2023-04-25T14:37:59;14.10;99.90
71367;DHT22;60030;52.274;8.040;2023-04-25T14:40:26;14.50;99.90
71367;DHT22;60030;52.274;8.040;2023-04-25T14:42:54;14.80;99.90
71367;DHT22;60030;52.274;8.040;2023-04-25T14:45:21;14.90;99.90
71367;DHT22;60030;52.274;8.040;2023-04-25T14:47:49;14.70;99.90
71367;DHT22;60030;52.274;8.040;2023-04-25T14:50:16;14.70;99.90
71367;DHT22;60030;52.274;8.040;2023-04-25T14:52:43;14.60;99.90
71367;DHT22;60030;52.274;8.040;2023-04-25T14:55:12;14.30;99.90
71367;DHT22;60030;52.274;8.040;2023-04-25T14:57:39;14.40;99.90
71367;DHT22;60030;52.274;8.040;2023-04-25T15:00:07;14.50;99.90
71367;DHT22;60030;52.274;8.040;2023-04-25T15:02:36;14.50;99.90
71367;DHT22;60030;52.274;8.040;2023-04-25T15:05:03;14.80;99.90
71367;DHT22;60030;52.274;8.040;2023-04-25T15:07:31;15.10;99.90
71367;DHT22;60030;52.274;8.040;2023-04-25T15:09:58;15.20;99.20
71367;DHT22;60030;52.274;8.040;2023-04-25T15:12:26;14.80;99.90
71367;DHT22;60030;52.274;8.040;2023-04-25T15:14:54;14.20;99.90
71367;DHT22;60030;52.274;8.040;2023-04-25T15:17:22;13.90;99.90
71367;DHT22;60030;52.274;8.040;2023-04-25T15:19:49;13.00;99.90
71367;DHT22;60030;52.274;8.040;2023-04-25T15:22:16;12.30;99.90
71367;DHT22;60030;52.274;8.040;2023-04-25T15:24:43;12.30;99.90
71367;DHT22;60030;52.274;8.040;2023-04-25T15:27:10;12.30;99.90
71367;DHT22;60030;52.274;8.040;2023-04-25T15:29:40;12.10;99.90
71367;DHT22;60030;52.274;8.040;2023-04-25T15:32:07;12.00;99.90
71367;DHT22;60030;52.274;8.040;2023-04-25T15:34:35;12.00;99.90
71367;DHT22;60030;52.274;8.040;2023-04-25T15:37:02;11.90;99.90
71367;DHT22;60030;52.274;8.040;2023-04-25T15:39:30;12.50;99.90
71367;DHT22;60030;52.274;8.040;2023-04-25T15:41:57;12.90;99.90
71367;DHT22;60030;52.274;8.040;2023-04-25T15:44:24;15.50;99.90
71367;DHT22;60030;52.274;8.040;2023-04-25T15:46:53;18.50;90.10
71367;DHT22;60030;52.274;8.040;2023-04-25T15:49:21;17.60;88.70
71367;DHT22;60030;52.274;8.040;2023-04-25T15:51:48;16.60;90.50
71367;DHT22;60030;52.274;8.040;2023-04-25T15:54:15;15.80;92.50
71367;DHT22;60030;52.274;8.040;2023-04-25T15:56:43;15.60;92.90
71367;DHT22;60030;52.274;8.040;2023-04-25T15:59:11;15.00;93.00
71367;DHT22;60030;52.274;8.040;2023-04-25T16:01:38;14.60;94.80